createdAt,value
2022-10-22T04:15:15.878Z,98.58
2022-10-22T04:17:42.692Z,99.18
2022-10-22T04:20:11.120Z,99.64
2022-10-22T04:22:37.679Z,99.26
2022-10-22T04:25:04.853Z,98.93
2022-10-22T04:27:34.514Z,98.70
2022-10-22T04:30:01.059Z,98.24
2022-10-22T04:32:28.499Z,97.71
2022-10-22T04:34:54.972Z,97.86
2022-10-22T04:37:21.571Z,97.48
2022-10-22T04:39:47.972Z,97.55
2022-10-22T04:42:14.444Z,98.10
2022-10-22T04:44:41.102Z,97.38
2022-10-22T04:47:07.655Z,97.70
2022-10-22T04:49:34.230Z,96.88
2022-10-22T04:52:00.813Z,97.17
2022-10-22T04:54:30.499Z,97.27
2022-10-22T04:56:59.590Z,96.81
2022-10-22T04:59:26.341Z,97.18
2022-10-22T05:01:53.015Z,97.87
2022-10-22T05:04:19.793Z,97.42
2022-10-22T05:06:47.072Z,97.00
2022-10-22T05:09:17.053Z,97.26
2022-10-22T05:11:48.209Z,96.99
2022-10-22T05:14:17.235Z,97.56
2022-10-22T05:19:17.945Z,97.62
2022-10-22T05:21:44.923Z,98.36
2022-10-22T05:24:11.802Z,97.37
2022-10-22T05:26:38.293Z,96.99
2022-10-22T05:29:04.767Z,96.89
2022-10-22T05:31:31.203Z,96.86
2022-10-22T05:33:57.709Z,97.04
2022-10-22T05:36:24.274Z,97.44
2022-10-22T05:38:51.276Z,97.26
2022-10-22T05:41:23.224Z,97.44
2022-10-22T05:43:50.648Z,96.94
2022-10-22T05:46:22.716Z,97.06
2022-10-22T05:48:53.754Z,96.79
2022-10-22T05:51:21.433Z,97.33
2022-10-22T05:53:52.544Z,96.15
2022-10-22T05:56:19.167Z,96.38
2022-10-22T05:58:46.199Z,96.55
2022-10-22T06:01:18.705Z,96.64
2022-10-22T06:03:47.232Z,97.11
2022-10-22T06:06:22.633Z,97.19
2022-10-22T06:08:51.652Z,97.52
2022-10-22T06:11:20.065Z,97.71
2022-10-22T06:13:47.774Z,97.54
2022-10-22T06:16:15.008Z,98.37
2022-10-22T06:18:41.689Z,97.88
2022-10-22T06:21:13.578Z,98.95
2022-10-22T06:23:41.183Z,99.16
2022-10-22T06:26:08.079Z,100.00
2022-10-22T06:28:35.113Z,100.00
2022-10-22T06:31:02.695Z,100.00
2022-10-22T06:33:31.239Z,100.00
2022-10-22T06:36:07.634Z,100.00
2022-10-22T06:38:34.557Z,100.00
2022-10-22T06:41:09.441Z,100.00
2022-10-22T06:43:36.205Z,100.00
2022-10-22T06:46:05.145Z,100.00
2022-10-22T06:48:31.658Z,100.00
2022-10-22T06:51:02.652Z,100.00
2022-10-22T06:53:29.929Z,100.00
2022-10-22T06:55:56.466Z,99.98
2022-10-22T06:58:23.092Z,98.91
2022-10-22T07:00:49.703Z,99.12
2022-10-22T07:03:16.217Z,98.86
2022-10-22T07:05:42.751Z,98.99
2022-10-22T07:08:09.348Z,98.01
2022-10-22T07:10:35.854Z,97.91
2022-10-22T07:13:02.344Z,98.44
2022-10-22T07:15:28.837Z,99.14
2022-10-22T07:17:55.400Z,100.00
2022-10-22T07:20:21.956Z,100.00
2022-10-22T07:22:48.474Z,99.75
2022-10-22T07:25:15.144Z,98.72
2022-10-22T07:27:41.937Z,99.41
2022-10-22T07:30:09.076Z,99.15
2022-10-22T07:32:35.570Z,98.64
2022-10-22T07:35:02.214Z,98.81
2022-10-22T07:37:28.778Z,98.76
2022-10-22T07:39:55.348Z,99.43
2022-10-22T07:42:21.958Z,98.58
2022-10-22T07:44:48.439Z,97.15
2022-10-22T07:47:14.941Z,98.32
2022-10-22T07:49:41.397Z,98.18
2022-10-22T07:52:08.121Z,97.39
2022-10-22T07:54:34.648Z,96.40
2022-10-22T07:57:01.157Z,95.99
2022-10-22T07:59:27.692Z,96.27
2022-10-22T08:01:54.143Z,95.81
2022-10-22T08:04:20.674Z,95.71
2022-10-22T08:06:47.355Z,95.71
2022-10-22T08:09:14.641Z,96.07
2022-10-22T08:11:41.111Z,94.75
2022-10-22T08:14:07.706Z,94.63
2022-10-22T08:16:34.253Z,93.11
2022-10-22T08:19:00.786Z,93.30
2022-10-22T08:21:27.237Z,92.44
2022-10-22T08:23:54.006Z,91.63
2022-10-22T08:26:20.562Z,91.08
2022-10-22T08:28:47.143Z,90.94
2022-10-22T08:31:13.750Z,90.74
2022-10-22T08:33:40.916Z,90.29
2022-10-22T08:36:08.234Z,90.41
2022-10-22T08:38:35.293Z,89.34
2022-10-22T08:41:12.168Z,89.85
2022-10-22T08:43:48.119Z,87.76
2022-10-22T08:46:52.593Z,85.60
2022-10-22T08:49:24.661Z,84.65
2022-10-22T08:51:51.304Z,81.59
2022-10-22T08:54:43.430Z,83.70
2022-10-22T08:57:16.025Z,81.02
2022-10-22T09:00:06.593Z,81.81
2022-10-22T09:02:39.681Z,81.20
2022-10-22T09:05:21.266Z,82.00
2022-10-22T09:07:50.201Z,81.21
2022-10-22T09:10:20.013Z,81.13
2022-10-22T09:12:48.389Z,80.22
2022-10-22T09:15:17.679Z,78.91
2022-10-22T09:17:58.490Z,79.58
2022-10-22T09:20:42.320Z,78.41
2022-10-22T09:23:17.711Z,77.40
2022-10-22T09:25:45.243Z,76.95
2022-10-22T09:28:11.725Z,76.05
2022-10-22T09:30:39.927Z,76.75
2022-10-22T09:33:06.361Z,74.93
2022-10-22T09:35:49.094Z,74.63
2022-10-22T09:38:18.905Z,76.39
2022-10-22T09:40:54.487Z,75.27
2022-10-22T09:43:21.356Z,75.89
2022-10-22T09:45:55.013Z,75.29
2022-10-22T09:48:26.510Z,74.88
2022-10-22T09:51:13.070Z,75.00
2022-10-22T09:53:43.729Z,75.07
2022-10-22T09:56:21.732Z,73.98
2022-10-22T09:58:51.156Z,71.86
2022-10-22T10:01:38.578Z,71.99
2022-10-22T10:04:10.013Z,72.68
2022-10-22T10:06:41.665Z,72.56
2022-10-22T10:09:19.758Z,70.94
2022-10-22T10:11:58.037Z,70.77
2022-10-22T10:14:37.372Z,70.59
2022-10-22T10:17:32.105Z,69.48
2022-10-22T10:20:24.053Z,68.93
2022-10-22T10:23:32.162Z,68.59
2022-10-22T10:26:08.083Z,68.34
2022-10-22T10:29:04.262Z,67.03
2022-10-22T10:32:02.780Z,66.15
2022-10-22T10:35:06.304Z,63.20
2022-10-22T10:37:51.488Z,64.99
2022-10-22T10:40:17.943Z,66.73
2022-10-22T10:43:00.035Z,67.35
2022-10-22T10:45:50.363Z,67.19
2022-10-22T10:48:52.563Z,66.36
2022-10-22T10:51:24.947Z,65.91
2022-10-22T10:54:03.882Z,65.73
2022-10-22T10:56:44.631Z,66.56
2022-10-22T10:59:17.549Z,67.68
2022-10-22T11:02:18.162Z,66.03
2022-10-22T11:05:22.071Z,62.77
2022-10-22T11:07:56.035Z,63.42
2022-10-22T11:10:31.555Z,62.41
2022-10-22T11:13:05.575Z,60.79
2022-10-22T11:15:39.279Z,59.43
2022-10-22T11:18:20.629Z,61.50
2022-10-22T11:20:52.959Z,61.80
2022-10-22T11:23:35.027Z,63.01
2022-10-22T11:26:04.153Z,63.96
2022-10-22T11:28:53.196Z,64.43
2022-10-22T11:31:25.402Z,64.20
2022-10-22T11:34:04.746Z,64.81
2022-10-22T11:36:37.905Z,64.28
2022-10-22T11:39:05.183Z,63.27
2022-10-22T11:41:33.571Z,64.45
2022-10-22T11:44:22.260Z,62.96
2022-10-22T11:46:58.398Z,62.05
2022-10-22T11:49:28.702Z,60.85
2022-10-22T11:52:22.791Z,60.16
2022-10-22T11:54:49.545Z,60.62
2022-10-22T11:57:19.069Z,61.50
2022-10-22T11:59:56.213Z,63.49
2022-10-22T12:02:28.616Z,63.02
2022-10-22T12:05:16.523Z,63.32
2022-10-22T12:07:57.487Z,63.95
2022-10-22T12:10:34.328Z,63.23
2022-10-22T12:13:21.226Z,62.24
2022-10-22T12:15:54.261Z,62.21
2022-10-22T12:18:24.522Z,61.66
2022-10-22T12:20:53.587Z,62.91
2022-10-22T12:23:31.498Z,62.40
2022-10-22T12:25:58.493Z,62.15
2022-10-22T12:28:25.165Z,61.52
2022-10-22T12:30:51.822Z,58.95
2022-10-22T12:33:21.682Z,55.61
2022-10-22T12:35:56.194Z,52.96
2022-10-22T12:38:25.547Z,49.02
2022-10-22T12:40:55.618Z,46.27
2022-10-22T12:43:28.285Z,51.95
2022-10-22T12:45:59.677Z,49.76
2022-10-22T12:48:34.428Z,50.95
2022-10-22T12:51:04.094Z,47.94
2022-10-22T12:53:38.012Z,47.61
2022-10-22T12:56:12.881Z,50.51
2022-10-22T12:58:49.357Z,52.23
2022-10-22T13:01:17.721Z,52.40
2022-10-22T13:03:50.591Z,55.10
2022-10-22T13:06:20.103Z,56.49
2022-10-22T13:09:12.260Z,57.65
2022-10-22T13:11:41.797Z,56.83
2022-10-22T13:14:38.709Z,51.79
2022-10-22T13:17:18.403Z,45.46
2022-10-22T13:19:51.600Z,49.49
2022-10-22T13:22:37.058Z,52.73
2022-10-22T13:25:20.390Z,56.58
2022-10-22T13:27:52.859Z,55.97
2022-10-22T13:30:19.481Z,56.43
2022-10-22T13:32:51.305Z,55.13
2022-10-22T13:35:24.947Z,54.00
2022-10-22T13:37:52.018Z,54.83
2022-10-22T13:40:19.279Z,55.07
2022-10-22T13:42:46.311Z,56.97
2022-10-22T13:45:14.560Z,57.30
2022-10-22T13:47:44.928Z,57.21
2022-10-22T13:50:15.738Z,53.26
2022-10-22T13:52:49.627Z,53.39
2022-10-22T13:55:25.716Z,55.49
2022-10-22T13:57:57.406Z,55.54
2022-10-22T14:00:24.367Z,56.13
2022-10-22T14:02:55.577Z,57.62
2022-10-22T14:05:22.185Z,57.39
2022-10-22T14:07:49.131Z,58.38
2022-10-22T14:10:22.516Z,58.01
2022-10-22T14:12:52.570Z,54.67
2022-10-22T14:15:27.591Z,50.68
2022-10-22T14:17:56.910Z,53.03
2022-10-22T14:20:30.561Z,54.10
2022-10-22T14:23:05.602Z,55.55
2022-10-22T14:25:32.172Z,55.68
2022-10-22T14:27:58.596Z,58.37
2022-10-22T14:30:26.379Z,60.51
2022-10-22T14:32:53.151Z,59.86
2022-10-22T14:35:24.452Z,60.01
2022-10-22T14:37:51.788Z,60.51
2022-10-22T14:40:20.516Z,60.65
2022-10-22T14:42:48.713Z,59.95
2022-10-22T14:45:22.459Z,60.84
2022-10-22T14:47:50.588Z,60.73
2022-10-22T14:50:18.909Z,60.23
2022-10-22T14:52:45.483Z,59.57
2022-10-22T14:55:14.685Z,60.77
2022-10-22T14:57:41.861Z,62.46
2022-10-22T15:00:12.649Z,61.73
2022-10-22T15:02:39.404Z,62.36
2022-10-22T15:05:07.210Z,62.53
2022-10-22T15:07:34.074Z,63.54
2022-10-22T15:10:00.599Z,63.31
2022-10-22T15:12:29.721Z,63.98
2022-10-22T15:14:57.387Z,65.23
2022-10-22T15:17:24.030Z,66.19
2022-10-22T15:19:50.620Z,66.26
2022-10-22T15:22:19.136Z,67.12
2022-10-22T15:24:46.014Z,67.66
2022-10-22T15:27:15.542Z,67.93
2022-10-22T15:29:42.640Z,67.72
2022-10-22T15:32:12.704Z,67.05
2022-10-22T15:34:40.060Z,66.96
2022-10-22T15:37:10.237Z,66.64
2022-10-22T15:39:40.886Z,66.66
2022-10-22T15:42:08.435Z,66.56
2022-10-22T15:44:35.496Z,66.38
2022-10-22T15:47:07.157Z,65.21
2022-10-22T15:49:35.706Z,65.75
2022-10-22T15:52:02.324Z,66.10
2022-10-22T15:54:30.154Z,65.89
2022-10-22T15:56:58.018Z,66.29
2022-10-22T15:59:24.957Z,67.05
2022-10-22T16:01:51.999Z,66.51
2022-10-22T16:04:19.136Z,67.42
2022-10-22T16:06:48.609Z,67.55
2022-10-22T16:09:21.739Z,67.62
2022-10-22T16:11:48.852Z,66.97
2022-10-22T16:14:17.763Z,68.32
2022-10-22T16:16:48.520Z,67.96
2022-10-22T16:19:19.132Z,68.12
2022-10-22T16:21:46.110Z,67.90
2022-10-22T16:24:12.964Z,68.07
2022-10-22T16:26:39.422Z,68.30
2022-10-22T16:29:11.461Z,67.98
2022-10-22T16:31:40.090Z,68.47
2022-10-22T16:34:07.379Z,68.38
2022-10-22T16:36:36.135Z,68.34
2022-10-22T16:39:03.578Z,68.62
2022-10-22T16:41:35.075Z,70.18
2022-10-22T16:44:04.483Z,70.54
2022-10-22T16:46:31.586Z,71.11
2022-10-22T16:48:58.178Z,71.20
2022-10-22T16:51:27.137Z,71.33
2022-10-22T16:53:56.130Z,72.22
2022-10-22T16:56:23.787Z,72.93
2022-10-22T16:59:03.719Z,73.61
2022-10-22T17:01:30.278Z,73.76
2022-10-22T17:07:30.198Z,74.55
2022-10-22T17:09:56.692Z,75.12
2022-10-22T17:12:23.227Z,74.46
2022-10-22T17:14:51.107Z,75.07
2022-10-22T17:17:17.932Z,75.95
2022-10-22T17:19:44.412Z,75.72
2022-10-22T17:22:14.778Z,75.88
2022-10-22T17:24:43.870Z,75.84
2022-10-22T17:27:10.702Z,76.39
2022-10-22T17:29:37.362Z,76.45
2022-10-22T17:32:03.911Z,76.76
2022-10-22T17:34:33.090Z,76.60
2022-10-22T17:37:00.228Z,77.37
2022-10-22T17:39:26.949Z,77.63
2022-10-22T17:41:53.433Z,78.04
2022-10-22T17:44:19.945Z,78.07
2022-10-22T17:46:47.244Z,78.40
2022-10-22T17:49:20.176Z,78.35
2022-10-22T17:51:47.274Z,78.25
2022-10-22T17:54:14.309Z,78.10
2022-10-22T17:56:40.996Z,78.08
2022-10-22T17:59:09.644Z,79.27
2022-10-22T18:01:40.242Z,79.19
2022-10-22T18:04:08.572Z,79.70
2022-10-22T18:06:35.499Z,80.51
2022-10-22T18:09:06.715Z,80.55
2022-10-22T18:11:34.422Z,80.11
2022-10-22T18:14:01.146Z,80.91
2022-10-22T18:16:27.764Z,80.48
2022-10-22T18:18:55.894Z,80.27
2022-10-22T18:21:24.406Z,80.21
2022-10-22T18:23:51.395Z,80.06
2022-10-22T18:26:21.366Z,80.18
2022-10-22T18:28:51.115Z,80.38
2022-10-22T18:31:20.647Z,80.44
2022-10-22T18:33:48.168Z,80.81
2022-10-22T18:36:20.577Z,80.80
2022-10-22T18:38:58.586Z,80.71
2022-10-22T18:41:26.461Z,80.58
2022-10-22T18:43:58.915Z,80.72
2022-10-22T18:46:26.157Z,81.45
2022-10-22T18:48:53.807Z,80.91
2022-10-22T18:51:20.791Z,80.80
2022-10-22T18:53:59.223Z,80.56
2022-10-22T18:56:39.543Z,80.84
2022-10-22T18:59:06.051Z,80.92
2022-10-22T19:01:35.414Z,81.32
2022-10-22T19:04:02.093Z,81.87
2022-10-22T19:06:34.435Z,82.07
2022-10-22T19:09:04.712Z,81.78
2022-10-22T19:11:32.263Z,81.96
2022-10-22T19:13:58.730Z,82.23
2022-10-22T19:16:26.787Z,82.38
2022-10-22T19:18:59.678Z,82.78
2022-10-22T19:21:26.384Z,82.96
2022-10-22T19:23:55.866Z,82.53
2022-10-22T19:26:24.113Z,82.90
2022-10-22T19:28:50.614Z,82.72
2022-10-22T19:31:19.664Z,83.29
2022-10-22T19:33:47.809Z,83.64
2022-10-22T19:36:17.124Z,83.53
2022-10-22T19:38:46.448Z,83.77
2022-10-22T19:41:15.340Z,83.46
2022-10-22T19:43:42.910Z,83.33
2022-10-22T19:46:09.733Z,83.92
2022-10-22T19:48:36.952Z,83.84
2022-10-22T19:51:14.732Z,83.88
2022-10-22T19:53:41.288Z,83.51
2022-10-22T19:56:10.576Z,83.56
2022-10-22T19:58:38.245Z,83.08
2022-10-22T20:01:06.751Z,82.69
2022-10-22T20:03:34.499Z,82.48
2022-10-22T20:06:01.068Z,83.06
2022-10-22T20:08:27.581Z,82.73
2022-10-22T20:10:54.450Z,82.62
2022-10-22T20:13:21.092Z,83.18
2022-10-22T20:15:48.828Z,83.77
2022-10-22T20:18:16.057Z,83.69
2022-10-22T20:20:42.672Z,83.79
2022-10-22T20:23:09.319Z,83.53
2022-10-22T20:25:40.377Z,83.83
2022-10-22T20:28:06.923Z,84.12
2022-10-22T20:30:33.435Z,84.57
2022-10-22T20:33:00.123Z,84.68
2022-10-22T20:35:26.681Z,84.02
2022-10-22T20:37:53.174Z,83.91
2022-10-22T20:40:20.181Z,84.00
2022-10-22T20:42:47.415Z,83.11
2022-10-22T20:45:13.926Z,82.97
2022-10-22T20:47:51.187Z,82.96
2022-10-22T20:50:21.191Z,83.46
2022-10-22T20:52:48.815Z,83.44
2022-10-22T20:57:43.323Z,82.99
2022-10-22T21:00:10.919Z,84.04
2022-10-22T21:02:37.391Z,83.81
2022-10-22T21:05:04.080Z,83.79
2022-10-22T21:07:30.702Z,83.83
2022-10-22T21:09:57.159Z,83.58
2022-10-22T21:12:23.649Z,84.45
2022-10-22T21:14:50.354Z,83.97
2022-10-22T21:17:16.985Z,84.27
2022-10-22T21:19:43.603Z,84.05
2022-10-22T21:22:10.322Z,84.51
2022-10-22T21:24:36.901Z,84.43
2022-10-22T21:27:04.217Z,84.67
2022-10-22T21:29:30.943Z,84.54
2022-10-22T21:31:57.600Z,84.65
2022-10-22T21:34:24.140Z,84.77
2022-10-22T21:36:50.727Z,84.35
2022-10-22T21:39:17.246Z,84.95
2022-10-22T21:41:43.736Z,84.58
2022-10-22T21:44:10.379Z,84.49
2022-10-22T21:46:37.485Z,84.68
2022-10-22T21:49:04.333Z,85.46
2022-10-22T21:51:33.575Z,84.83
2022-10-22T21:54:00.452Z,85.25
2022-10-22T21:56:30.151Z,84.78
2022-10-22T21:58:56.659Z,85.34
